Latest Coastal Weather Observations for Tewantin

IDQ60701

Issued at 8:51 pm EST Thursday 21 November 2019 (issued every 10 minutes, with the page automatically refreshed every 10 minutes)

About coastal observations | Map of coastal stations | Coastal observations for QLD | Marine services | Other Formats
Station Details ID: 040908 Name: TEWANTIN RSL PARK Lat: -26.39 Lon: 153.04 Height: 6.4 m
Data from the previous 72 hours. | See also: Recent months at Tewantin
Date/Time
EST
Wind Sea
Height
m
Swell Vis
km
Cloud Weather Temp
°C
Press
hPa
Rain since
9am
mm
Dir  Spd
kts
Gust
kts
Height
m
Period
s
Dir
21/08:30pm NE 5 9 - - - - - - - 22.5 1018.8 0.0
21/08:00pm NE 6 9 - - - - - - - 22.7 1018.6 0.0
21/07:30pm NE 5 8 - - - - - - - 22.8 1018.3 0.0
21/07:00pm ENE 7 9 - - - - - - - 22.7 1018.0 0.0
21/06:30pm NE 6 10 - - - - - - - 22.9 1017.7 0.0
21/06:00pm ENE 6 9 - - - - - - - 23.1 1017.5 0.0
21/05:30pm ENE 7 9 - - - - - - - 23.7 1017.1 0.0
21/05:00pm ENE 7 13 - - - - - - - 24.4 1016.8 0.0
21/04:30pm NE 7 11 - - - - - - - 24.7 1016.6 0.0
21/04:00pm NE 7 11 - - - - - - - 24.9 1016.6 0.0
21/03:30pm ENE 8 14 - - - - - - - 25.4 1016.7 0.0
21/03:00pm ENE 9 14 - - - - - - - 25.9 1016.8 0.0
21/02:30pm ENE 11 17 - - - - - - - 25.8 1017.0 0.0
21/02:00pm ENE 9 14 - - - - - - - 26.2 1017.2 0.0
21/01:30pm ENE 9 15 - - - - - - - 25.7 1017.6 0.0
21/01:00pm ENE 9 15 - - - - - - - 26.4 1017.9 0.0
21/12:30pm ENE 9 14 - - - - - - - 26.6 1018.1 0.0
21/12:00pm NE 9 14 - - - - - - - 26.0 1018.4 0.0
21/11:30am ENE 8 11 - - - - - - - 26.0 1018.7 0.0
21/11:00am ENE 9 13 - - - - - - - 26.2 1018.8 0.0
21/10:30am ENE 8 12 - - - - - - - 26.3 1019.0 0.0
21/10:00am NNE 8 13 - - - - - - - 25.7 1019.1 0.0
21/09:30am NNE 8 14 - - - - - - - 25.7 1019.2 0.0
21/09:00am NNE 9 13 - - - - - - - 25.3 1019.3 0.0
21/08:30am NNE 7 13 - - - - - - - 25.9 1019.3 0.0
21/08:00am NE 8 11 - - - - - - - 25.6 1019.2 0.0
21/07:30am NE 8 12 - - - - - - - 24.6 1019.1 0.0
21/07:00am NE 6 10 - - - - - - - 25.0 1019.0 0.0
21/06:30am NE 6 10 - - - - - - - 24.2 1018.5 0.0
21/06:00am NE 6 8 - - - - - - - 23.6 1018.2 0.0
21/05:30am ENE 5 9 - - - - - - - 23.2 1017.9 0.0
21/05:00am ENE 6 9 - - - - - - - 22.7 1017.5 0.0
21/04:30am ENE 7 12 - - - - - - - 22.9 1017.1 0.0
21/04:00am ENE 6 10 - - - - - - - 22.8 1016.7 0.0
21/03:30am ENE 4 7 - - - - - - - 22.6 1016.3 0.0
21/03:00am NE 3 4 - - - - - - - 22.2 1016.0 0.0
21/02:30am ENE 4 5 - - - - - - - 22.5 1016.0 0.0
21/02:00am NNE 4 5 - - - - - - - 22.8 1015.9 0.0
21/01:30am NNE 3 5 - - - - - - - 22.9 1015.9 0.0
21/01:00am N 3 5 - - - - - - - 23.1 1016.0 0.0
21/12:30am NNE 6 7 - - - - - - - 23.3 1016.0 0.0
21/12:00am NNE 6 9 - - - - - - - 23.6 1016.1 0.0
 
Date/Time
EST
Wind Sea
Height
m
Swell Vis
km
Cloud Weather Temp
°C
Press
hPa
Rain since
9am
mm
Dir  Spd
kts
Gust
kts
Height
m
Period
s
Dir
20/11:30pm NNE 6 9 - - - - - - - 23.7 1016.3 0.0
20/11:00pm NNE 6 8 - - - - - - - 23.8 1016.4 0.0
20/10:30pm NNE 4 6 - - - - - - - 23.9 1016.3 0.0
20/10:00pm NNE 5 6 - - - - - - - 23.8 1016.1 0.0
20/09:30pm N 4 6 - - - - - - - 23.9 1015.8 0.0
20/09:00pm N 5 8 - - - - - - - 23.8 1015.4 0.0
20/08:30pm NNE 6 8 - - - - - - - 23.9 1015.0 0.0
20/08:00pm N 7 9 - - - - - - - 23.9 1014.4 0.0
20/07:30pm NNE 7 11 - - - - - - - 24.0 1013.9 0.0
20/07:00pm NNE 10 15 - - - - - - - 24.2 1013.4 0.0
20/06:30pm NNE 10 18 - - - - - - - 24.3 1012.9 0.0
20/06:00pm NNE 10 16 - - - - - - - 24.6 1012.4 0.0
20/05:30pm NNE 11 19 - - - - - - - 24.9 1011.9 0.0
20/05:00pm NNE 10 15 - - - - - - - 25.3 1011.5 0.0
20/04:30pm NNE 13 19 - - - - - - - 25.5 1011.1 0.0
20/04:00pm NNE 15 21 - - - - - - - 25.7 1010.9 0.0
20/03:30pm NE 10 16 - - - - - - - 26.2 1010.9 0.0
20/03:00pm NE 11 18 - - - - - - - 26.2 1010.9 0.0
20/02:30pm NE 11 18 - - - - - - - 27.1 1011.0 0.0
20/02:00pm NE 11 18 - - - - - - - 27.1 1011.0 0.0
20/01:30pm NE 11 17 - - - - - - - 26.8 1011.3 0.0
20/01:00pm NNE 13 17 - - - - - - - 27.1 1011.5 0.0
20/12:30pm NE 10 14 - - - - - - - 27.6 1011.8 0.0
20/12:00pm NE 9 13 - - - - - - - 27.3 1012.2 0.0
20/11:30am NE 10 15 - - - - - - - 26.7 1012.6 0.0
20/11:00am NE 8 13 - - - - - - - 27.0 1013.0 0.0
20/10:30am NE 8 12 - - - - - - - 27.0 1013.4 0.0
20/10:00am NE 6 9 - - - - - - - 27.7 1013.7 0.0
20/09:30am N 7 10 - - - - - - - 27.5 1014.0 0.0
20/09:00am NNE 6 9 - - - - - - - 27.1 1014.2 0.0
20/08:30am NNW 7 11 - - - - - - - 26.7 1014.5 0.0
20/08:00am N 5 8 - - - - - - - 25.5 1014.6 0.0
20/07:30am N 6 8 - - - - - - - 24.6 1014.8 0.0
20/07:00am N 3 4 - - - - - - - 23.4 1014.9 0.0
20/06:30am CALM 0 0 - - - - - - - 22.1 1014.8 0.0
20/06:00am CALM 0 0 - - - - - - - 21.1 1014.6 0.0
20/05:30am WNW 1 3 - - - - - - - 20.7 1014.3 0.0
20/05:00am WNW 1 4 - - - - - - - 20.4 1014.1 0.0
20/04:30am WNW 2 5 - - - - - - - 20.6 1013.7 0.0
20/04:00am W 1 3 - - - - - - - 20.6 1013.5 0.0
20/03:30am W 1 3 - - - - - - - 20.7 1013.4 0.0
20/03:00am NNE 2 5 - - - - - - - 21.3 1013.3 0.0
20/02:30am NNE 4 6 - - - - - - - 21.4 1013.1 0.0
20/02:00am NNE 3 4 - - - - - - - 21.3 1013.3 0.0
20/01:30am NNE 3 4 - - - - - - - 21.5 1013.5 0.0
20/01:00am CALM 0 3 - - - - - - - 21.6 1013.7 0.0
20/12:30am NNW 2 4 - - - - - - - 21.6 1013.7 0.0
20/12:00am NNW 3 5 - - - - - - - 21.6 1013.9 0.0
 
Date/Time
EST
Wind Sea
Height
m
Swell Vis
km
Cloud Weather Temp
°C
Press
hPa
Rain since
9am
mm
Dir  Spd
kts
Gust
kts
Height
m
Period
s
Dir
19/11:30pm N 4 5 - - - - - - - 21.5 1014.0 0.0
19/11:00pm NNW 3 5 - - - - - - - 21.5 1014.3 0.0
19/10:30pm NW 4 5 - - - - - - - 21.8 1014.4 0.0
19/10:00pm NW 4 6 - - - - - - - 21.7 1014.4 0.0
19/09:30pm NW 3 5 - - - - - - - 21.9 1014.3 0.0
19/09:00pm NNW 4 5 - - - - - - - 22.8 1014.3 0.0
19/08:30pm N 5 8 - - - - - - - 23.1 1013.9 0.0
19/08:00pm N 6 9 - - - - - - - 23.3 1013.6 0.0
19/07:30pm N 8 11 - - - - - - - 23.3 1013.4 0.0
19/07:00pm NNE 9 12 - - - - - - - 23.4 1013.3 0.0
19/06:30pm NNE 8 13 - - - - - - - 23.5 1012.9 0.0
19/06:00pm NNE 11 16 - - - - - - - 23.7 1012.5 0.0
19/05:30pm NNE 10 16 - - - - - - - 24.2 1012.2 0.0
19/05:00pm NNE 12 17 - - - - - - - 24.4 1012.1 0.0
19/04:30pm NE 9 12 - - - - - - - 24.7 1011.8 0.0
19/04:00pm NE 8 13 - - - - - - - 25.3 1011.9 0.0
19/03:30pm NE 9 15 - - - - - - - 25.4 1012.0 0.0
19/03:00pm NE 10 15 - - - - - - - 25.3 1012.2 0.0
19/02:30pm NE 9 15 - - - - - - - 25.8 1012.3 0.0
19/02:00pm NE 8 12 - - - - - - - 26.0 1012.9 0.0
19/01:30pm NE 8 12 - - - - - - - 25.9 1013.2 0.0
19/01:00pm NE 9 13 - - - - - - - 25.7 1013.5 0.0
19/12:30pm NE 7 12 - - - - - - - 26.5 1014.0 0.0
19/12:00pm ENE 8 13 - - - - - - - 26.0 1014.6 0.0
19/11:30am NE 7 11 - - - - - - - 26.0 1015.0 0.0
19/11:00am ENE 7 10 - - - - - - - 26.2 1015.5 0.0
19/10:30am NNE 5 9 - - - - - - - 26.0 1015.8 0.0
19/10:00am ENE 5 7 - - - - - - - 25.5 1016.2 0.0
19/09:30am ENE 4 9 - - - - - - - 26.0 1016.6 0.0
19/09:00am N 3 5 - - - - - - - 24.7 1016.7 0.0
19/08:30am NE 1 4 - - - - - - - 24.9 1016.8 0.0
19/08:00am CALM 0 0 - - - - - - - 24.7 1016.7 0.0
19/07:30am SSE 3 4 - - - - - - - 24.1 1016.6 0.0
19/07:00am SSW 2 3 - - - - - - - 23.4 1016.8 0.0
19/06:30am CALM 0 3 - - - - - - - 21.7 1016.7 0.0
19/06:00am W 2 4 - - - - - - - 20.6 1016.6 0.0
19/05:30am SW 1 3 - - - - - - - 19.9 1016.3 0.0
19/05:00am CALM 0 0 - - - - - - - 20.1 1016.0 0.0
19/04:30am SSW 2 4 - - - - - - - 20.4 1015.7 0.0
19/04:00am SW 1 4 - - - - - - - 20.4 1015.3 0.0
19/03:30am SW 1 4 - - - - - - - 20.4 1015.2 0.0
19/03:00am SW 2 4 - - - - - - - 20.5 1015.2 0.0
19/02:30am SW 1 3 - - - - - - - 20.4 1015.2 0.0
19/02:00am SSW 2 4 - - - - - - - 20.3 1015.3 0.0
19/01:30am SW 4 5 - - - - - - - 20.0 1015.4 0.0
19/01:00am SW 3 5 - - - - - - - 19.8 1015.7 0.0
19/12:30am SSW 3 4 - - - - - - - 19.9 1015.9 0.0
19/12:00am SW 2 4 - - - - - - - 19.8 1016.3 0.0
 
Date/Time
EST
Wind Sea
Height
m
Swell Vis
km
Cloud Weather Temp
°C
Press
hPa
Rain since
9am
mm
Dir  Spd
kts
Gust
kts
Height
m
Period
s
Dir
18/11:30pm CALM 0 3 - - - - - - - 20.1 1016.6 0.0
18/11:00pm E 2 5 - - - - - - - 20.9 1017.1 0.0
18/10:30pm E 4 5 - - - - - - - 20.9 1017.2 0.0
18/10:00pm ENE 4 7 - - - - - - - 21.0 1017.6 0.0
18/09:30pm E 5 7 - - - - - - - 21.1 1017.8 0.0
18/09:00pm E 4 6 - - - - - - - 21.3 1017.8 0.0

Other formats

Comma delimited format used in spreadsheet applications
http://www.bom.gov.au/fwo/IDQ60701/IDQ60701.94570.axf

JavaScript Object Notation format (JSON) in row-major order
http://www.bom.gov.au/fwo/IDQ60701/IDQ60701.94570.json

Data quality

Most of these data are generated automatically and are frequently updated. Quality checks on data are not normally performed. It is possible for incorrect values to appear. Refer to information at About Latest Weather Observations and please check the disclaimer before using these data.